Terminal Aerodrome Forecast
Issued by NWS

Home | Current Version | Previous Version | Text Only | Print | Product List | Glossary On
Versions: 1 2 3 4 5 6 7 8 9 10 11 12 13 14 15
603
FTUS43 KMPX 241721
TAFAXN
TAF
KAXN 241721Z 2418/2518 29013G18KT P6SM SCT250
     FM250200 28005KT P6SM SCT250
     FM251400 30013G20KT P6SM SCT025=

USA.gov is the U.S. government's official web portal to all federal, state and local government web resources and services.